sensor_id;sensor_type;location;lat;lon;timestamp;pressure;altitude;pressure_sealevel;temperature;humidity
70468;BME280;57934;51.532;7.684;2023-05-19T00:01:28;101345.44;;;9.16;nan
70468;BME280;57934;51.532;7.684;2023-05-19T00:03:55;101353.19;;;9.09;nan
70468;BME280;57934;51.532;7.684;2023-05-19T00:06:25;101346.09;;;9.10;nan
70468;BME280;57934;51.532;7.684;2023-05-19T00:08:58;101340.84;;;9.10;nan
70468;BME280;57934;51.532;7.684;2023-05-19T00:11:25;101338.03;;;9.11;nan
70468;BME280;57934;51.532;7.684;2023-05-19T00:13:52;101335.53;;;9.01;nan
70468;BME280;57934;51.532;7.684;2023-05-19T00:16:19;101339.56;;;8.88;nan
70468;BME280;57934;51.532;7.684;2023-05-19T00:18:46;101334.16;;;8.89;nan
70468;BME280;57934;51.532;7.684;2023-05-19T00:21:13;101337.78;;;8.88;nan
70468;BME280;57934;51.532;7.684;2023-05-19T00:23:39;101334.94;;;8.81;nan
70468;BME280;57934;51.532;7.684;2023-05-19T00:26:05;101332.09;;;8.75;nan
70468;BME280;57934;51.532;7.684;2023-05-19T00:28:31;101334.56;;;8.76;nan
70468;BME280;57934;51.532;7.684;2023-05-19T00:30:57;101330.44;;;8.74;nan
70468;BME280;57934;51.532;7.684;2023-05-19T00:33:23;101333.41;;;8.71;nan
70468;BME280;57934;51.532;7.684;2023-05-19T00:35:49;101335.69;;;8.74;nan
70468;BME280;57934;51.532;7.684;2023-05-19T00:38:15;101328.88;;;8.81;nan
70468;BME280;57934;51.532;7.684;2023-05-19T00:40:41;101330.59;;;8.72;nan
70468;BME280;57934;51.532;7.684;2023-05-19T00:43:07;101327.75;;;8.66;nan
70468;BME280;57934;51.532;7.684;2023-05-19T00:45:34;101323.63;;;8.63;nan
70468;BME280;57934;51.532;7.684;2023-05-19T00:48:00;101321.47;;;8.58;nan
70468;BME280;57934;51.532;7.684;2023-05-19T00:50:26;101329.16;;;8.52;nan
70468;BME280;57934;51.532;7.684;2023-05-19T00:52:56;101333.06;;;8.48;nan
70468;BME280;57934;51.532;7.684;2023-05-19T00:55:27;101330.13;;;8.51;nan
70468;BME280;57934;51.532;7.684;2023-05-19T00:57:54;101320.84;;;8.39;nan
70468;BME280;57934;51.532;7.684;2023-05-19T01:00:21;101331.66;;;8.35;nan
70468;BME280;57934;51.532;7.684;2023-05-19T01:02:48;101332.09;;;8.31;nan
70468;BME280;57934;51.532;7.684;2023-05-19T01:05:17;101330.44;;;8.30;nan
70468;BME280;57934;51.532;7.684;2023-05-19T01:07:43;101327.66;;;8.31;nan
70468;BME280;57934;51.532;7.684;2023-05-19T01:10:09;101326.94;;;8.39;nan
70468;BME280;57934;51.532;7.684;2023-05-19T01:12:35;101325.78;;;8.42;nan
70468;BME280;57934;51.532;7.684;2023-05-19T01:15:02;101326.78;;;8.41;nan
70468;BME280;57934;51.532;7.684;2023-05-19T01:17:59;101327.22;;;8.36;nan
70468;BME280;57934;51.532;7.684;2023-05-19T01:20:35;101320.91;;;8.29;nan
70468;BME280;57934;51.532;7.684;2023-05-19T01:29:19;101323.31;;;8.22;nan
70468;BME280;57934;51.532;7.684;2023-05-19T01:31:48;101323.31;;;8.22;nan
70468;BME280;57934;51.532;7.684;2023-05-19T01:34:16;101321.22;;;8.26;nan
70468;BME280;57934;51.532;7.684;2023-05-19T01:36:43;101321.34;;;8.24;nan
70468;BME280;57934;51.532;7.684;2023-05-19T01:39:10;101316.41;;;8.21;nan
70468;BME280;57934;51.532;7.684;2023-05-19T01:41:37;101323.75;;;8.18;nan
70468;BME280;57934;51.532;7.684;2023-05-19T01:44:07;101314.25;;;8.17;nan
70468;BME280;57934;51.532;7.684;2023-05-19T01:46:34;101317.56;;;8.19;nan
70468;BME280;57934;51.532;7.684;2023-05-19T01:49:03;101315.22;;;8.16;nan
70468;BME280;57934;51.532;7.684;2023-05-19T01:51:30;101315.81;;;8.09;nan
70468;BME280;57934;51.532;7.684;2023-05-19T01:53:56;101318.91;;;8.05;nan
70468;BME280;57934;51.532;7.684;2023-05-19T01:56:40;101312.31;;;8.01;nan
70468;BME280;57934;51.532;7.684;2023-05-19T01:59:31;101307.59;;;7.86;nan
70468;BME280;57934;51.532;7.684;2023-05-19T02:02:01;101313.66;;;7.87;nan
70468;BME280;57934;51.532;7.684;2023-05-19T02:04:41;101314.31;;;7.89;nan
70468;BME280;57934;51.532;7.684;2023-05-19T02:07:13;101317.25;;;7.86;nan
70468;BME280;57934;51.532;7.684;2023-05-19T02:12:23;101325.88;;;7.78;nan
70468;BME280;57934;51.532;7.684;2023-05-19T02:15:27;101328.50;;;7.78;nan
70468;BME280;57934;51.532;7.684;2023-05-19T02:17:52;101324.97;;;7.70;nan
70468;BME280;57934;51.532;7.684;2023-05-19T02:20:20;101329.84;;;7.64;nan
70468;BME280;57934;51.532;7.684;2023-05-19T02:22:47;101330.53;;;7.67;nan
70468;BME280;57934;51.532;7.684;2023-05-19T02:25:13;101335.00;;;7.56;nan
70468;BME280;57934;51.532;7.684;2023-05-19T02:27:40;101333.44;;;7.63;nan
70468;BME280;57934;51.532;7.684;2023-05-19T02:30:07;101328.78;;;7.57;nan
70468;BME280;57934;51.532;7.684;2023-05-19T02:32:34;101326.34;;;7.46;nan
70468;BME280;57934;51.532;7.684;2023-05-19T02:35:02;101325.44;;;7.37;nan
70468;BME280;57934;51.532;7.684;2023-05-19T02:37:28;101321.16;;;7.36;nan
70468;BME280;57934;51.532;7.684;2023-05-19T02:39:55;101324.72;;;7.45;nan
70468;BME280;57934;51.532;7.684;2023-05-19T02:42:21;101328.44;;;7.43;nan
70468;BME280;57934;51.532;7.684;2023-05-19T02:44:49;101326.13;;;7.39;nan
70468;BME280;57934;51.532;7.684;2023-05-19T02:47:15;101324.53;;;7.29;nan
70468;BME280;57934;51.532;7.684;2023-05-19T02:49:41;101324.16;;;7.24;nan
70468;BME280;57934;51.532;7.684;2023-05-19T02:52:07;101317.22;;;7.23;nan
70468;BME280;57934;51.532;7.684;2023-05-19T02:54:33;101323.19;;;7.15;nan
70468;BME280;57934;51.532;7.684;2023-05-19T02:57:00;101316.69;;;7.19;nan
70468;BME280;57934;51.532;7.684;2023-05-19T02:59:26;101320.03;;;7.11;nan
70468;BME280;57934;51.532;7.684;2023-05-19T03:01:58;101316.59;;;7.11;nan
70468;BME280;57934;51.532;7.684;2023-05-19T03:04:25;101320.47;;;7.07;nan
70468;BME280;57934;51.532;7.684;2023-05-19T03:06:51;101322.56;;;7.03;nan
70468;BME280;57934;51.532;7.684;2023-05-19T03:09:19;101325.72;;;7.07;nan
70468;BME280;57934;51.532;7.684;2023-05-19T03:11:45;101319.50;;;7.08;nan
70468;BME280;57934;51.532;7.684;2023-05-19T03:14:11;101318.69;;;7.07;nan
70468;BME280;57934;51.532;7.684;2023-05-19T03:16:38;101317.66;;;7.18;nan
70468;BME280;57934;51.532;7.684;2023-05-19T03:19:07;101318.91;;;7.24;nan
70468;BME280;57934;51.532;7.684;2023-05-19T03:21:33;101317.66;;;7.18;nan
70468;BME280;57934;51.532;7.684;2023-05-19T03:24:00;101313.44;;;7.07;nan
70468;BME280;57934;51.532;7.684;2023-05-19T03:26:26;101311.78;;;7.06;nan
70468;BME280;57934;51.532;7.684;2023-05-19T03:28:55;101304.66;;;6.99;nan
70468;BME280;57934;51.532;7.684;2023-05-19T03:31:21;101300.06;;;7.01;nan
70468;BME280;57934;51.532;7.684;2023-05-19T03:33:47;101304.66;;;6.99;nan
70468;BME280;57934;51.532;7.684;2023-05-19T03:36:13;101309.47;;;7.03;nan
70468;BME280;57934;51.532;7.684;2023-05-19T03:38:39;101312.22;;;7.02;nan
70468;BME280;57934;51.532;7.684;2023-05-19T03:41:05;101313.47;;;6.98;nan
70468;BME280;57934;51.532;7.684;2023-05-19T03:43:31;101315.97;;;6.99;nan
70468;BME280;57934;51.532;7.684;2023-05-19T03:46:01;101319.50;;;7.08;nan
70468;BME280;57934;51.532;7.684;2023-05-19T03:48:53;101321.03;;;7.10;nan
70468;BME280;57934;51.532;7.684;2023-05-19T03:51:30;101329.19;;;7.07;nan
70468;BME280;57934;51.532;7.684;2023-05-19T03:54:02;101332.78;;;7.06;nan
70468;BME280;57934;51.532;7.684;2023-05-19T03:56:29;101333.44;;;7.08;nan
70468;BME280;57934;51.532;7.684;2023-05-19T03:58:55;101333.56;;;7.16;nan
70468;BME280;57934;51.532;7.684;2023-05-19T04:01:21;101326.09;;;7.12;nan
70468;BME280;57934;51.532;7.684;2023-05-19T04:03:47;101325.28;;;7.11;nan
70468;BME280;57934;51.532;7.684;2023-05-19T04:06:13;101320.81;;;7.22;nan
70468;BME280;57934;51.532;7.684;2023-05-19T04:08:39;101325.50;;;7.28;nan
70468;BME280;57934;51.532;7.684;2023-05-19T04:11:05;101321.53;;;7.24;nan
70468;BME280;57934;51.532;7.684;2023-05-19T04:13:32;101326.22;;;7.20;nan
70468;BME280;57934;51.532;7.684;2023-05-19T04:15:58;101328.31;;;7.16;nan
70468;BME280;57934;51.532;7.684;2023-05-19T04:18:25;101326.72;;;7.06;nan
70468;BME280;57934;51.532;7.684;2023-05-19T04:20:51;101331.75;;;7.17;nan
70468;BME280;57934;51.532;7.684;2023-05-19T04:23:18;101330.06;;;7.26;nan
70468;BME280;57934;51.532;7.684;2023-05-19T04:25:44;101330.75;;;7.28;nan
70468;BME280;57934;51.532;7.684;2023-05-19T04:28:13;101331.41;;;7.30;nan
70468;BME280;57934;51.532;7.684;2023-05-19T04:30:40;101324.75;;;7.35;nan
70468;BME280;57934;51.532;7.684;2023-05-19T04:33:07;101325.88;;;7.33;nan
70468;BME280;57934;51.532;7.684;2023-05-19T04:35:34;101325.75;;;7.34;nan
70468;BME280;57934;51.532;7.684;2023-05-19T04:38:00;101324.91;;;7.34;nan
70468;BME280;57934;51.532;7.684;2023-05-19T04:40:30;101328.75;;;7.39;nan
70468;BME280;57934;51.532;7.684;2023-05-19T04:42:56;101329.03;;;7.36;nan
70468;BME280;57934;51.532;7.684;2023-05-19T04:45:23;101328.75;;;7.39;nan
70468;BME280;57934;51.532;7.684;2023-05-19T04:47:53;101326.59;;;7.53;nan
70468;BME280;57934;51.532;7.684;2023-05-19T04:50:23;101328.66;;;7.59;nan
70468;BME280;57934;51.532;7.684;2023-05-19T04:52:49;101335.00;;;7.56;nan
70468;BME280;57934;51.532;7.684;2023-05-19T04:55:15;101323.22;;;7.60;nan
70468;BME280;57934;51.532;7.684;2023-05-19T04:57:42;101329.91;;;7.55;nan
70468;BME280;57934;51.532;7.684;2023-05-19T05:00:08;101325.19;;;7.58;nan
70468;BME280;57934;51.532;7.684;2023-05-19T05:02:46;101326.97;;;7.58;nan
70468;BME280;57934;51.532;7.684;2023-05-19T05:05:12;101333.59;;;7.62;nan
70468;BME280;57934;51.532;7.684;2023-05-19T05:07:38;101327.91;;;7.84;nan
70468;BME280;57934;51.532;7.684;2023-05-19T05:10:05;101324.75;;;7.81;nan
70468;BME280;57934;51.532;7.684;2023-05-19T05:12:32;101322.13;;;7.81;nan
70468;BME280;57934;51.532;7.684;2023-05-19T05:14:58;101320.25;;;7.91;nan
70468;BME280;57934;51.532;7.684;2023-05-19T05:17:26;101327.44;;;8.07;nan
70468;BME280;57934;51.532;7.684;2023-05-19T05:19:53;101330.53;;;8.02;nan
70468;BME280;57934;51.532;7.684;2023-05-19T05:22:19;101329.94;;;8.08;nan
70468;BME280;57934;51.532;7.684;2023-05-19T05:24:46;101336.97;;;8.26;nan
70468;BME280;57934;51.532;7.684;2023-05-19T05:27:12;101333.22;;;8.28;nan
70468;BME280;57934;51.532;7.684;2023-05-19T05:29:39;101337.00;;;8.44;nan
70468;BME280;57934;51.532;7.684;2023-05-19T05:32:09;101341.47;;;8.51;nan
70468;BME280;57934;51.532;7.684;2023-05-19T05:34:35;101336.13;;;8.61;nan
70468;BME280;57934;51.532;7.684;2023-05-19T05:37:04;101333.28;;;8.80;nan
70468;BME280;57934;51.532;7.684;2023-05-19T05:39:30;101332.50;;;8.88;nan
70468;BME280;57934;51.532;7.684;2023-05-19T05:41:56;101335.22;;;9.04;nan
70468;BME280;57934;51.532;7.684;2023-05-19T05:44:22;101328.81;;;9.49;nan
70468;BME280;57934;51.532;7.684;2023-05-19T05:46:49;101335.28;;;9.63;nan
70468;BME280;57934;51.532;7.684;2023-05-19T05:49:15;101327.88;;;9.59;nan
70468;BME280;57934;51.532;7.684;2023-05-19T05:51:44;101330.88;;;9.88;nan
70468;BME280;57934;51.532;7.684;2023-05-19T05:54:12;101326.81;;;10.26;nan
70468;BME280;57934;51.532;7.684;2023-05-19T05:56:43;101324.50;;;10.40;nan
70468;BME280;57934;51.532;7.684;2023-05-19T05:59:10;101329.75;;;10.32;nan
70468;BME280;57934;51.532;7.684;2023-05-19T06:01:36;101329.75;;;10.15;nan
70468;BME280;57934;51.532;7.684;2023-05-19T06:04:04;101334.38;;;10.30;nan
70468;BME280;57934;51.532;7.684;2023-05-19T06:06:30;101331.41;;;10.49;nan
70468;BME280;57934;51.532;7.684;2023-05-19T06:08:59;101329.44;;;10.51;nan
70468;BME280;57934;51.532;7.684;2023-05-19T06:11:26;101331.06;;;10.11;nan
70468;BME280;57934;51.532;7.684;2023-05-19T06:13:54;101329.59;;;10.58;nan
70468;BME280;57934;51.532;7.684;2023-05-19T06:16:41;101325.41;;;10.80;nan
70468;BME280;57934;51.532;7.684;2023-05-19T06:19:07;101325.94;;;11.22;nan
70468;BME280;57934;51.532;7.684;2023-05-19T06:21:33;101323.00;;;11.17;nan
70468;BME280;57934;51.532;7.684;2023-05-19T06:23:59;101324.53;;;11.04;nan
70468;BME280;57934;51.532;7.684;2023-05-19T06:26:25;101317.84;;;11.24;nan
70468;BME280;57934;51.532;7.684;2023-05-19T06:28:51;101324.47;;;11.12;nan
70468;BME280;57934;51.532;7.684;2023-05-19T06:31:17;101318.25;;;11.05;nan
70468;BME280;57934;51.532;7.684;2023-05-19T06:33:51;101316.22;;;11.15;nan
70468;BME280;57934;51.532;7.684;2023-05-19T06:36:19;101319.06;;;11.13;nan
70468;BME280;57934;51.532;7.684;2023-05-19T06:38:46;101312.09;;;11.20;nan
70468;BME280;57934;51.532;7.684;2023-05-19T06:41:12;101317.81;;;11.32;nan
70468;BME280;57934;51.532;7.684;2023-05-19T06:43:38;101314.22;;;11.25;nan
70468;BME280;57934;51.532;7.684;2023-05-19T06:46:04;101313.97;;;11.04;nan
70468;BME280;57934;51.532;7.684;2023-05-19T06:48:32;101312.66;;;11.39;nan
70468;BME280;57934;51.532;7.684;2023-05-19T06:50:58;101314.81;;;11.35;nan
70468;BME280;57934;51.532;7.684;2023-05-19T06:53:25;101319.03;;;11.53;nan
70468;BME280;57934;51.532;7.684;2023-05-19T06:55:52;101310.03;;;11.39;nan
70468;BME280;57934;51.532;7.684;2023-05-19T06:58:21;101312.91;;;11.52;nan
70468;BME280;57934;51.532;7.684;2023-05-19T07:00:47;101317.34;;;11.83;nan
70468;BME280;57934;51.532;7.684;2023-05-19T07:03:16;101316.31;;;12.15;nan
70468;BME280;57934;51.532;7.684;2023-05-19T07:05:42;101309.47;;;12.21;nan
70468;BME280;57934;51.532;7.684;2023-05-19T07:08:08;101318.69;;;11.87;nan
70468;BME280;57934;51.532;7.684;2023-05-19T07:10:35;101316.00;;;12.10;nan
70468;BME280;57934;51.532;7.684;2023-05-19T07:13:04;101319.56;;;12.40;nan
70468;BME280;57934;51.532;7.684;2023-05-19T07:15:32;101315.13;;;12.55;nan
70468;BME280;57934;51.532;7.684;2023-05-19T07:17:58;101307.63;;;12.59;nan
70468;BME280;57934;51.532;7.684;2023-05-19T07:20:24;101309.19;;;12.53;nan
70468;BME280;57934;51.532;7.684;2023-05-19T07:22:50;101307.84;;;12.72;nan
70468;BME280;57934;51.532;7.684;2023-05-19T07:25:16;101301.63;;;12.80;nan
70468;BME280;57934;51.532;7.684;2023-05-19T07:27:45;101306.81;;;12.88;nan
70468;BME280;57934;51.532;7.684;2023-05-19T07:30:11;101300.44;;;13.27;nan
70468;BME280;57934;51.532;7.684;2023-05-19T07:32:37;101294.94;;;13.65;nan
70468;BME280;57934;51.532;7.684;2023-05-19T07:35:04;101296.19;;;13.69;nan
70468;BME280;57934;51.532;7.684;2023-05-19T07:37:30;101298.34;;;13.58;nan
70468;BME280;57934;51.532;7.684;2023-05-19T07:39:56;101296.50;;;14.23;nan
70468;BME280;57934;51.532;7.684;2023-05-19T07:42:22;101309.75;;;14.23;nan
70468;BME280;57934;51.532;7.684;2023-05-19T07:44:48;101303.97;;;13.92;nan
70468;BME280;57934;51.532;7.684;2023-05-19T07:47:14;101304.59;;;14.15;nan
70468;BME280;57934;51.532;7.684;2023-05-19T07:49:40;101293.69;;;14.94;nan
70468;BME280;57934;51.532;7.684;2023-05-19T07:52:06;101296.31;;;15.36;nan
70468;BME280;57934;51.532;7.684;2023-05-19T07:54:32;101292.78;;;15.70;nan
70468;BME280;57934;51.532;7.684;2023-05-19T07:56:58;101287.00;;;16.66;nan
70468;BME280;57934;51.532;7.684;2023-05-19T07:59:24;101293.75;;;16.68;nan
70468;BME280;57934;51.532;7.684;2023-05-19T08:01:50;101288.91;;;17.24;nan
70468;BME280;57934;51.532;7.684;2023-05-19T08:04:16;101287.22;;;18.43;nan
70468;BME280;57934;51.532;7.684;2023-05-19T08:06:42;101278.50;;;19.27;nan
70468;BME280;57934;51.532;7.684;2023-05-19T08:09:09;101281.81;;;18.93;nan
70468;BME280;57934;51.532;7.684;2023-05-19T08:11:35;101282.13;;;19.63;nan
70468;BME280;57934;51.532;7.684;2023-05-19T08:14:02;101282.53;;;20.84;nan
70468;BME280;57934;51.532;7.684;2023-05-19T08:16:28;101283.91;;;19.69;nan
70468;BME280;57934;51.532;7.684;2023-05-19T08:18:54;101285.13;;;20.44;nan
70468;BME280;57934;51.532;7.684;2023-05-19T08:21:20;101292.75;;;22.02;nan
70468;BME280;57934;51.532;7.684;2023-05-19T08:23:46;62908.66;;;-145.37;100.00
70468;BME280;57934;51.532;7.684;2023-05-19T08:26:12;62908.66;;;-145.37;100.00
70468;BME280;57934;51.532;7.684;2023-05-19T08:28:38;62908.66;;;-145.37;100.00
70468;BME280;57934;51.532;7.684;2023-05-19T08:31:04;62908.66;;;-145.37;100.00
70468;BME280;57934;51.532;7.684;2023-05-19T08:33:30;62908.66;;;-145.37;100.00
70468;BME280;57934;51.532;7.684;2023-05-19T08:35:56;62908.66;;;-145.37;100.00
70468;BME280;57934;51.532;7.684;2023-05-19T08:38:24;62908.66;;;-145.37;100.00
70468;BME280;57934;51.532;7.684;2023-05-19T08:40:50;62908.66;;;-145.37;100.00
70468;BME280;57934;51.532;7.684;2023-05-19T08:43:17;62908.66;;;-145.37;100.00
70468;BME280;57934;51.532;7.684;2023-05-19T08:45:44;62908.66;;;-145.37;100.00
70468;BME280;57934;51.532;7.684;2023-05-19T08:48:13;62908.66;;;-145.37;100.00
70468;BME280;57934;51.532;7.684;2023-05-19T08:50:51;62908.66;;;-145.37;100.00
70468;BME280;57934;51.532;7.684;2023-05-19T08:53:22;62908.66;;;-145.37;100.00
70468;BME280;57934;51.532;7.684;2023-05-19T08:56:00;62908.66;;;-145.37;100.00
70468;BME280;57934;51.532;7.684;2023-05-19T08:58:29;62908.66;;;-145.37;100.00
70468;BME280;57934;51.532;7.684;2023-05-19T09:00:58;62908.66;;;-145.37;100.00
70468;BME280;57934;51.532;7.684;2023-05-19T09:03:25;62908.66;;;-145.37;100.00
70468;BME280;57934;51.532;7.684;2023-05-19T09:05:53;62908.66;;;-145.37;100.00
70468;BME280;57934;51.532;7.684;2023-05-19T09:08:19;62908.66;;;-145.37;100.00
70468;BME280;57934;51.532;7.684;2023-05-19T09:10:45;62908.66;;;-145.37;100.00
70468;BME280;57934;51.532;7.684;2023-05-19T09:13:11;62908.66;;;-145.37;100.00
70468;BME280;57934;51.532;7.684;2023-05-19T09:15:38;62908.66;;;-145.37;100.00
70468;BME280;57934;51.532;7.684;2023-05-19T09:18:09;62908.66;;;-145.37;100.00
70468;BME280;57934;51.532;7.684;2023-05-19T09:20:37;62908.66;;;-145.37;100.00
70468;BME280;57934;51.532;7.684;2023-05-19T09:23:04;62908.66;;;-145.37;100.00
70468;BME280;57934;51.532;7.684;2023-05-19T09:25:30;62908.66;;;-145.37;100.00
70468;BME280;57934;51.532;7.684;2023-05-19T09:27:56;62908.66;;;-145.37;100.00
70468;BME280;57934;51.532;7.684;2023-05-19T09:30:22;62908.66;;;-145.37;100.00
70468;BME280;57934;51.532;7.684;2023-05-19T09:32:50;62908.66;;;-145.37;100.00
70468;BME280;57934;51.532;7.684;2023-05-19T09:35:16;62908.66;;;-145.37;100.00
70468;BME280;57934;51.532;7.684;2023-05-19T09:37:45;62908.66;;;-145.37;100.00
70468;BME280;57934;51.532;7.684;2023-05-19T09:40:14;62908.66;;;-145.37;100.00
70468;BME280;57934;51.532;7.684;2023-05-19T09:42:41;62908.66;;;-145.37;100.00
70468;BME280;57934;51.532;7.684;2023-05-19T09:45:08;62908.66;;;-145.37;100.00
70468;BME280;57934;51.532;7.684;2023-05-19T09:47:36;62908.66;;;-145.37;100.00
70468;BME280;57934;51.532;7.684;2023-05-19T09:50:04;62908.66;;;-145.37;100.00
70468;BME280;57934;51.532;7.684;2023-05-19T09:52:34;62908.66;;;-145.37;100.00
70468;BME280;57934;51.532;7.684;2023-05-19T09:55:01;62908.66;;;-145.37;100.00
70468;BME280;57934;51.532;7.684;2023-05-19T09:57:32;62908.66;;;-145.37;100.00
70468;BME280;57934;51.532;7.684;2023-05-19T09:59:59;62908.66;;;-145.37;100.00
70468;BME280;57934;51.532;7.684;2023-05-19T10:02:25;62908.66;;;-145.37;100.00
70468;BME280;57934;51.532;7.684;2023-05-19T10:04:52;62908.66;;;-145.37;100.00
70468;BME280;57934;51.532;7.684;2023-05-19T10:07:19;62908.66;;;-145.37;100.00
70468;BME280;57934;51.532;7.684;2023-05-19T10:09:49;62908.66;;;-145.37;100.00
70468;BME280;57934;51.532;7.684;2023-05-19T10:12:16;62908.66;;;-145.37;100.00
70468;BME280;57934;51.532;7.684;2023-05-19T10:14:42;62908.66;;;-145.37;100.00
70468;BME280;57934;51.532;7.684;2023-05-19T10:17:10;62908.66;;;-145.37;100.00
70468;BME280;57934;51.532;7.684;2023-05-19T10:19:37;62908.66;;;-145.37;100.00
70468;BME280;57934;51.532;7.684;2023-05-19T10:22:04;62908.66;;;-145.37;100.00
70468;BME280;57934;51.532;7.684;2023-05-19T10:24:30;62908.66;;;-145.37;100.00
70468;BME280;57934;51.532;7.684;2023-05-19T10:27:04;62908.66;;;-145.37;100.00
70468;BME280;57934;51.532;7.684;2023-05-19T10:29:35;62908.66;;;-145.37;100.00
70468;BME280;57934;51.532;7.684;2023-05-19T10:32:09;62908.66;;;-145.37;100.00
70468;BME280;57934;51.532;7.684;2023-05-19T10:37:36;62908.66;;;-145.37;100.00
70468;BME280;57934;51.532;7.684;2023-05-19T10:40:12;62908.66;;;-145.37;100.00
70468;BME280;57934;51.532;7.684;2023-05-19T10:45:45;62908.66;;;-145.37;100.00
70468;BME280;57934;51.532;7.684;2023-05-19T10:48:15;62908.66;;;-145.37;100.00
70468;BME280;57934;51.532;7.684;2023-05-19T10:50:46;62908.66;;;-145.37;100.00
70468;BME280;57934;51.532;7.684;2023-05-19T10:53:14;62908.66;;;-145.37;100.00
70468;BME280;57934;51.532;7.684;2023-05-19T10:55:53;62908.66;;;-145.37;100.00
70468;BME280;57934;51.532;7.684;2023-05-19T11:01:15;62908.66;;;-145.37;100.00
70468;BME280;57934;51.532;7.684;2023-05-19T11:03:52;62908.66;;;-145.37;100.00
70468;BME280;57934;51.532;7.684;2023-05-19T11:06:19;62908.66;;;-145.37;100.00
70468;BME280;57934;51.532;7.684;2023-05-19T11:08:45;101149.78;;;25.45;nan
70468;BME280;57934;51.532;7.684;2023-05-19T11:11:16;101149.69;;;26.02;nan
70468;BME280;57934;51.532;7.684;2023-05-19T11:13:46;101148.97;;;25.40;nan
70468;BME280;57934;51.532;7.684;2023-05-19T11:16:13;101139.22;;;25.03;nan
70468;BME280;57934;51.532;7.684;2023-05-19T11:18:42;101144.59;;;24.10;nan
70468;BME280;57934;51.532;7.684;2023-05-19T11:21:12;101139.50;;;23.71;nan
70468;BME280;57934;51.532;7.684;2023-05-19T11:23:38;101138.97;;;25.56;nan
70468;BME280;57934;51.532;7.684;2023-05-19T11:26:06;101143.78;;;24.82;nan
70468;BME280;57934;51.532;7.684;2023-05-19T11:28:34;101132.06;;;24.46;nan
70468;BME280;57934;51.532;7.684;2023-05-19T11:31:01;101133.75;;;25.95;nan
70468;BME280;57934;51.532;7.684;2023-05-19T11:33:27;101127.81;;;25.98;nan
70468;BME280;57934;51.532;7.684;2023-05-19T11:35:54;101138.38;;;25.79;nan
70468;BME280;57934;51.532;7.684;2023-05-19T11:38:25;101130.28;;;25.64;nan
70468;BME280;57934;51.532;7.684;2023-05-19T11:40:55;101130.28;;;24.97;nan
70468;BME280;57934;51.532;7.684;2023-05-19T11:43:22;101121.13;;;25.80;nan
70468;BME280;57934;51.532;7.684;2023-05-19T11:45:48;101123.28;;;25.07;nan
70468;BME280;57934;51.532;7.684;2023-05-19T11:48:15;101114.81;;;26.60;nan
70468;BME280;57934;51.532;7.684;2023-05-19T11:50:42;101120.22;;;26.65;nan
70468;BME280;57934;51.532;7.684;2023-05-19T11:53:11;101129.94;;;24.48;nan
70468;BME280;57934;51.532;7.684;2023-05-19T11:55:42;101124.31;;;22.41;nan
70468;BME280;57934;51.532;7.684;2023-05-19T11:58:09;101117.97;;;22.08;nan
70468;BME280;57934;51.532;7.684;2023-05-19T12:00:37;101123.38;;;20.90;nan
70468;BME280;57934;51.532;7.684;2023-05-19T12:03:04;101115.66;;;20.94;nan
70468;BME280;57934;51.532;7.684;2023-05-19T12:05:30;101114.22;;;19.94;nan
70468;BME280;57934;51.532;7.684;2023-05-19T12:07:56;101116.31;;;19.68;nan
70468;BME280;57934;51.532;7.684;2023-05-19T12:10:23;101122.13;;;19.65;nan
70468;BME280;57934;51.532;7.684;2023-05-19T12:12:50;101106.31;;;19.52;nan
70468;BME280;57934;51.532;7.684;2023-05-19T12:15:23;101107.47;;;19.68;nan
70468;BME280;57934;51.532;7.684;2023-05-19T12:17:50;101113.50;;;19.98;nan
70468;BME280;57934;51.532;7.684;2023-05-19T12:20:18;101109.44;;;19.72;nan
70468;BME280;57934;51.532;7.684;2023-05-19T12:22:45;101090.22;;;19.28;nan
70468;BME280;57934;51.532;7.684;2023-05-19T12:25:11;101096.81;;;19.02;nan
70468;BME280;57934;51.532;7.684;2023-05-19T12:27:37;101096.72;;;19.44;nan
70468;BME280;57934;51.532;7.684;2023-05-19T12:30:04;101094.19;;;19.61;nan
70468;BME280;57934;51.532;7.684;2023-05-19T12:32:32;101084.31;;;19.38;nan
70468;BME280;57934;51.532;7.684;2023-05-19T12:35:01;101086.38;;;19.48;nan
70468;BME280;57934;51.532;7.684;2023-05-19T12:37:27;101083.84;;;19.53;nan
70468;BME280;57934;51.532;7.684;2023-05-19T12:39:58;101083.28;;;19.63;nan
70468;BME280;57934;51.532;7.684;2023-05-19T12:42:27;101076.28;;;19.50;nan
70468;BME280;57934;51.532;7.684;2023-05-19T12:44:58;101078.47;;;19.18;nan
70468;BME280;57934;51.532;7.684;2023-05-19T12:47:34;101063.38;;;19.70;nan
70468;BME280;57934;51.532;7.684;2023-05-19T12:50:08;101060.09;;;19.33;nan
70468;BME280;57934;51.532;7.684;2023-05-19T12:52:42;101072.09;;;19.54;nan
70468;BME280;57934;51.532;7.684;2023-05-19T12:55:09;101072.81;;;19.73;nan
70468;BME280;57934;51.532;7.684;2023-05-19T12:57:40;101074.09;;;19.59;nan
70468;BME280;57934;51.532;7.684;2023-05-19T13:00:16;101072.69;;;19.56;nan
70468;BME280;57934;51.532;7.684;2023-05-19T13:03:06;101072.34;;;18.75;nan
70468;BME280;57934;51.532;7.684;2023-05-19T13:05:38;101075.03;;;18.99;nan
70468;BME280;57934;51.532;7.684;2023-05-19T13:08:06;101063.44;;;19.05;nan
70468;BME280;57934;51.532;7.684;2023-05-19T13:10:33;101071.75;;;19.39;nan
70468;BME280;57934;51.532;7.684;2023-05-19T13:13:01;101060.69;;;19.35;nan
70468;BME280;57934;51.532;7.684;2023-05-19T13:15:28;101069.06;;;19.62;nan
70468;BME280;57934;51.532;7.684;2023-05-19T13:17:56;101068.94;;;19.57;nan
70468;BME280;57934;51.532;7.684;2023-05-19T13:20:22;101062.91;;;19.50;nan
70468;BME280;57934;51.532;7.684;2023-05-19T13:22:49;101071.41;;;19.59;nan
70468;BME280;57934;51.532;7.684;2023-05-19T13:25:15;101069.44;;;19.30;nan
70468;BME280;57934;51.532;7.684;2023-05-19T13:27:42;101064.16;;;19.47;nan
70468;BME280;57934;51.532;7.684;2023-05-19T13:30:09;101067.44;;;19.61;nan